sensor_id;sensor_type;location;lat;lon;timestamp;temperature;humidity
15983;DHT22;14442;50.196;8.096;2023-06-10T00:02:11;21.60;57.20
15983;DHT22;14442;50.196;8.096;2023-06-10T00:04:38;21.60;57.20
15983;DHT22;14442;50.196;8.096;2023-06-10T00:07:05;21.50;57.00
15983;DHT22;14442;50.196;8.096;2023-06-10T00:09:34;21.50;57.10
15983;DHT22;14442;50.196;8.096;2023-06-10T00:12:03;21.60;57.10
15983;DHT22;14442;50.196;8.096;2023-06-10T00:14:30;21.50;57.00
15983;DHT22;14442;50.196;8.096;2023-06-10T00:16:57;21.50;57.20
15983;DHT22;14442;50.196;8.096;2023-06-10T00:19:24;21.50;56.80
15983;DHT22;14442;50.196;8.096;2023-06-10T00:21:51;21.50;56.80
15983;DHT22;14442;50.196;8.096;2023-06-10T00:24:18;21.50;56.80
15983;DHT22;14442;50.196;8.096;2023-06-10T00:26:45;21.50;56.80
15983;DHT22;14442;50.196;8.096;2023-06-10T00:29:13;21.50;56.70
15983;DHT22;14442;50.196;8.096;2023-06-10T00:31:40;21.50;56.60
15983;DHT22;14442;50.196;8.096;2023-06-10T00:34:07;21.50;56.70
15983;DHT22;14442;50.196;8.096;2023-06-10T00:36:34;21.40;56.60
15983;DHT22;14442;50.196;8.096;2023-06-10T00:39:01;21.40;56.30
15983;DHT22;14442;50.196;8.096;2023-06-10T00:41:29;21.40;56.50
15983;DHT22;14442;50.196;8.096;2023-06-10T00:43:56;21.40;56.50
15983;DHT22;14442;50.196;8.096;2023-06-10T00:46:25;21.40;56.40
15983;DHT22;14442;50.196;8.096;2023-06-10T00:48:53;21.40;56.40
15983;DHT22;14442;50.196;8.096;2023-06-10T00:51:20;21.40;56.30
15983;DHT22;14442;50.196;8.096;2023-06-10T00:53:47;21.40;57.00
15983;DHT22;14442;50.196;8.096;2023-06-10T00:56:15;21.40;56.40
15983;DHT22;14442;50.196;8.096;2023-06-10T00:58:42;21.30;56.10
15983;DHT22;14442;50.196;8.096;2023-06-10T01:01:09;21.30;56.10
15983;DHT22;14442;50.196;8.096;2023-06-10T01:03:38;21.30;56.20
15983;DHT22;14442;50.196;8.096;2023-06-10T01:06:08;21.30;56.20
15983;DHT22;14442;50.196;8.096;2023-06-10T01:08:45;21.30;56.20
15983;DHT22;14442;50.196;8.096;2023-06-10T01:11:19;21.30;56.10
15983;DHT22;14442;50.196;8.096;2023-06-10T01:13:47;21.30;56.00
15983;DHT22;14442;50.196;8.096;2023-06-10T01:16:17;21.20;56.00
15983;DHT22;14442;50.196;8.096;2023-06-10T01:18:45;21.20;56.00
15983;DHT22;14442;50.196;8.096;2023-06-10T01:21:17;21.30;56.00
15983;DHT22;14442;50.196;8.096;2023-06-10T01:23:44;21.20;55.90
15983;DHT22;14442;50.196;8.096;2023-06-10T01:26:11;21.20;55.90
15983;DHT22;14442;50.196;8.096;2023-06-10T01:28:42;21.20;56.00
15983;DHT22;14442;50.196;8.096;2023-06-10T01:31:16;21.20;55.90
15983;DHT22;14442;50.196;8.096;2023-06-10T01:33:49;21.20;55.80
15983;DHT22;14442;50.196;8.096;2023-06-10T01:36:20;21.20;55.80
15983;DHT22;14442;50.196;8.096;2023-06-10T01:38:48;21.20;55.70
15983;DHT22;14442;50.196;8.096;2023-06-10T01:41:17;21.10;55.70
15983;DHT22;14442;50.196;8.096;2023-06-10T01:43:44;21.10;55.70
15983;DHT22;14442;50.196;8.096;2023-06-10T01:46:11;21.10;55.60
15983;DHT22;14442;50.196;8.096;2023-06-10T01:48:38;21.10;55.70
15983;DHT22;14442;50.196;8.096;2023-06-10T01:51:05;21.10;55.70
15983;DHT22;14442;50.196;8.096;2023-06-10T01:53:34;21.10;55.60
15983;DHT22;14442;50.196;8.096;2023-06-10T01:56:00;21.10;55.60
15983;DHT22;14442;50.196;8.096;2023-06-10T01:58:27;21.10;55.60
15983;DHT22;14442;50.196;8.096;2023-06-10T02:00:54;21.10;55.60
15983;DHT22;14442;50.196;8.096;2023-06-10T02:03:20;21.10;55.50
15983;DHT22;14442;50.196;8.096;2023-06-10T02:05:47;21.00;55.50
15983;DHT22;14442;50.196;8.096;2023-06-10T02:08:14;21.10;55.40
15983;DHT22;14442;50.196;8.096;2023-06-10T02:10:42;21.00;55.40
15983;DHT22;14442;50.196;8.096;2023-06-10T02:13:09;21.00;55.40
15983;DHT22;14442;50.196;8.096;2023-06-10T02:15:36;21.00;55.40
15983;DHT22;14442;50.196;8.096;2023-06-10T02:18:03;21.00;55.30
15983;DHT22;14442;50.196;8.096;2023-06-10T02:20:30;21.00;55.30
15983;DHT22;14442;50.196;8.096;2023-06-10T02:22:57;21.00;55.20
15983;DHT22;14442;50.196;8.096;2023-06-10T02:25:23;20.90;55.10
15983;DHT22;14442;50.196;8.096;2023-06-10T02:27:51;20.90;55.20
15983;DHT22;14442;50.196;8.096;2023-06-10T02:30:18;20.90;55.10
15983;DHT22;14442;50.196;8.096;2023-06-10T02:32:45;20.90;55.10
15983;DHT22;14442;50.196;8.096;2023-06-10T02:35:13;20.90;54.90
15983;DHT22;14442;50.196;8.096;2023-06-10T02:37:40;20.90;55.00
15983;DHT22;14442;50.196;8.096;2023-06-10T02:40:08;20.90;54.70
15983;DHT22;14442;50.196;8.096;2023-06-10T02:42:35;20.90;54.80
15983;DHT22;14442;50.196;8.096;2023-06-10T02:45:04;20.80;54.70
15983;DHT22;14442;50.196;8.096;2023-06-10T02:47:31;20.90;54.90
15983;DHT22;14442;50.196;8.096;2023-06-10T02:49:58;20.80;54.70
15983;DHT22;14442;50.196;8.096;2023-06-10T02:52:25;20.80;54.70
15983;DHT22;14442;50.196;8.096;2023-06-10T02:54:51;20.80;54.60
15983;DHT22;14442;50.196;8.096;2023-06-10T02:57:18;20.80;54.70
15983;DHT22;14442;50.196;8.096;2023-06-10T02:59:45;20.80;54.80
15983;DHT22;14442;50.196;8.096;2023-06-10T03:02:13;20.80;54.70
15983;DHT22;14442;50.196;8.096;2023-06-10T03:04:41;20.80;54.50
15983;DHT22;14442;50.196;8.096;2023-06-10T03:07:09;20.70;54.50
15983;DHT22;14442;50.196;8.096;2023-06-10T03:09:36;20.70;54.50
15983;DHT22;14442;50.196;8.096;2023-06-10T03:12:04;20.70;54.50
15983;DHT22;14442;50.196;8.096;2023-06-10T03:14:31;20.70;54.30
15983;DHT22;14442;50.196;8.096;2023-06-10T03:16:58;20.80;54.50
15983;DHT22;14442;50.196;8.096;2023-06-10T03:19:26;20.70;55.10
15983;DHT22;14442;50.196;8.096;2023-06-10T03:22:07;20.70;54.50
15983;DHT22;14442;50.196;8.096;2023-06-10T03:24:34;20.70;54.40
15983;DHT22;14442;50.196;8.096;2023-06-10T03:27:02;20.70;54.50
15983;DHT22;14442;50.196;8.096;2023-06-10T03:29:31;20.70;54.50
15983;DHT22;14442;50.196;8.096;2023-06-10T03:31:57;20.70;54.60
15983;DHT22;14442;50.196;8.096;2023-06-10T03:34:25;20.70;54.50
15983;DHT22;14442;50.196;8.096;2023-06-10T03:36:52;20.70;54.40
15983;DHT22;14442;50.196;8.096;2023-06-10T03:39:19;20.60;54.30
15983;DHT22;14442;50.196;8.096;2023-06-10T03:41:46;20.60;54.40
15983;DHT22;14442;50.196;8.096;2023-06-10T03:44:13;20.70;54.30
15983;DHT22;14442;50.196;8.096;2023-06-10T03:46:40;20.60;54.20
15983;DHT22;14442;50.196;8.096;2023-06-10T03:49:07;20.60;54.10
15983;DHT22;14442;50.196;8.096;2023-06-10T03:51:36;20.70;54.30
15983;DHT22;14442;50.196;8.096;2023-06-10T03:54:03;20.60;54.40
15983;DHT22;14442;50.196;8.096;2023-06-10T03:56:30;20.60;54.10
15983;DHT22;14442;50.196;8.096;2023-06-10T03:58:57;20.60;54.30
15983;DHT22;14442;50.196;8.096;2023-06-10T04:01:24;20.60;54.10
15983;DHT22;14442;50.196;8.096;2023-06-10T04:03:51;20.60;54.20
15983;DHT22;14442;50.196;8.096;2023-06-10T04:06:19;20.60;54.20
15983;DHT22;14442;50.196;8.096;2023-06-10T04:08:49;20.60;54.10
15983;DHT22;14442;50.196;8.096;2023-06-10T04:11:16;20.60;54.10
15983;DHT22;14442;50.196;8.096;2023-06-10T04:13:42;20.50;54.10
15983;DHT22;14442;50.196;8.096;2023-06-10T04:16:09;20.50;54.20
15983;DHT22;14442;50.196;8.096;2023-06-10T04:18:36;20.50;54.20
15983;DHT22;14442;50.196;8.096;2023-06-10T04:21:03;20.50;54.10
15983;DHT22;14442;50.196;8.096;2023-06-10T04:23:29;20.50;54.20
15983;DHT22;14442;50.196;8.096;2023-06-10T04:25:57;20.50;54.20
15983;DHT22;14442;50.196;8.096;2023-06-10T04:28:24;20.50;54.20
15983;DHT22;14442;50.196;8.096;2023-06-10T04:30:52;20.50;54.30
15983;DHT22;14442;50.196;8.096;2023-06-10T04:33:19;20.50;54.30
15983;DHT22;14442;50.196;8.096;2023-06-10T04:35:46;20.50;54.40
15983;DHT22;14442;50.196;8.096;2023-06-10T04:38:13;20.50;54.40
15983;DHT22;14442;50.196;8.096;2023-06-10T04:40:39;20.50;54.60
15983;DHT22;14442;50.196;8.096;2023-06-10T04:43:08;20.50;54.60
15983;DHT22;14442;50.196;8.096;2023-06-10T04:45:34;20.50;54.70
15983;DHT22;14442;50.196;8.096;2023-06-10T04:48:01;20.50;54.70
15983;DHT22;14442;50.196;8.096;2023-06-10T04:50:28;20.50;54.80
15983;DHT22;14442;50.196;8.096;2023-06-10T04:52:55;20.50;55.00
15983;DHT22;14442;50.196;8.096;2023-06-10T04:55:23;20.50;55.70
15983;DHT22;14442;50.196;8.096;2023-06-10T04:57:49;20.50;55.10
15983;DHT22;14442;50.196;8.096;2023-06-10T05:00:18;20.50;55.10
15983;DHT22;14442;50.196;8.096;2023-06-10T05:02:45;20.50;55.20
15983;DHT22;14442;50.196;8.096;2023-06-10T05:05:15;20.40;55.10
15983;DHT22;14442;50.196;8.096;2023-06-10T05:07:42;20.50;55.30
15983;DHT22;14442;50.196;8.096;2023-06-10T05:10:09;20.50;55.40
15983;DHT22;14442;50.196;8.096;2023-06-10T05:12:37;20.50;55.40
15983;DHT22;14442;50.196;8.096;2023-06-10T05:15:05;20.50;55.50
15983;DHT22;14442;50.196;8.096;2023-06-10T05:17:33;20.50;55.60
15983;DHT22;14442;50.196;8.096;2023-06-10T05:20:01;20.50;55.60
15983;DHT22;14442;50.196;8.096;2023-06-10T05:22:27;20.50;55.70
15983;DHT22;14442;50.196;8.096;2023-06-10T05:24:54;20.50;55.80
15983;DHT22;14442;50.196;8.096;2023-06-10T05:27:21;20.50;55.80
15983;DHT22;14442;50.196;8.096;2023-06-10T05:29:48;20.50;55.80
15983;DHT22;14442;50.196;8.096;2023-06-10T05:32:15;20.60;55.80
15983;DHT22;14442;50.196;8.096;2023-06-10T05:34:43;20.60;55.70
15983;DHT22;14442;50.196;8.096;2023-06-10T05:37:09;20.70;55.70
15983;DHT22;14442;50.196;8.096;2023-06-10T05:39:36;20.70;55.70
15983;DHT22;14442;50.196;8.096;2023-06-10T05:42:04;20.70;55.70
15983;DHT22;14442;50.196;8.096;2023-06-10T05:44:32;20.70;55.80
15983;DHT22;14442;50.196;8.096;2023-06-10T05:46:58;20.70;55.80
15983;DHT22;14442;50.196;8.096;2023-06-10T05:49:25;20.70;55.90
15983;DHT22;14442;50.196;8.096;2023-06-10T05:51:53;20.70;55.80
15983;DHT22;14442;50.196;8.096;2023-06-10T05:54:21;20.70;55.90
15983;DHT22;14442;50.196;8.096;2023-06-10T05:56:48;20.70;55.80
15983;DHT22;14442;50.196;8.096;2023-06-10T05:59:15;20.80;55.90
15983;DHT22;14442;50.196;8.096;2023-06-10T06:01:41;20.80;55.90
15983;DHT22;14442;50.196;8.096;2023-06-10T06:04:08;20.80;55.90
15983;DHT22;14442;50.196;8.096;2023-06-10T06:06:35;20.80;55.90
15983;DHT22;14442;50.196;8.096;2023-06-10T06:09:03;20.80;55.90
15983;DHT22;14442;50.196;8.096;2023-06-10T06:11:30;20.80;55.90
15983;DHT22;14442;50.196;8.096;2023-06-10T06:13:56;20.80;55.90
15983;DHT22;14442;50.196;8.096;2023-06-10T06:16:23;20.80;55.90
15983;DHT22;14442;50.196;8.096;2023-06-10T06:18:50;20.90;56.00
15983;DHT22;14442;50.196;8.096;2023-06-10T06:21:17;20.90;55.90
15983;DHT22;14442;50.196;8.096;2023-06-10T06:23:43;20.90;55.90
15983;DHT22;14442;50.196;8.096;2023-06-10T06:26:11;20.90;56.00
15983;DHT22;14442;50.196;8.096;2023-06-10T06:28:38;20.90;56.00
15983;DHT22;14442;50.196;8.096;2023-06-10T06:31:05;20.90;55.90
15983;DHT22;14442;50.196;8.096;2023-06-10T06:33:33;20.90;56.00
15983;DHT22;14442;50.196;8.096;2023-06-10T06:35:59;20.90;56.00
15983;DHT22;14442;50.196;8.096;2023-06-10T06:38:26;20.90;56.00
15983;DHT22;14442;50.196;8.096;2023-06-10T06:40:53;20.90;56.00
15983;DHT22;14442;50.196;8.096;2023-06-10T06:43:21;20.90;56.10
15983;DHT22;14442;50.196;8.096;2023-06-10T06:45:49;20.90;56.10
15983;DHT22;14442;50.196;8.096;2023-06-10T06:48:15;21.00;56.20
15983;DHT22;14442;50.196;8.096;2023-06-10T06:50:42;21.00;56.80
15983;DHT22;14442;50.196;8.096;2023-06-10T06:53:09;21.00;56.20
15983;DHT22;14442;50.196;8.096;2023-06-10T06:55:36;21.00;56.20
15983;DHT22;14442;50.196;8.096;2023-06-10T06:58:02;21.00;56.20
15983;DHT22;14442;50.196;8.096;2023-06-10T07:00:31;21.00;56.20
15983;DHT22;14442;50.196;8.096;2023-06-10T07:02:57;21.00;56.20
15983;DHT22;14442;50.196;8.096;2023-06-10T07:05:24;21.00;56.20
15983;DHT22;14442;50.196;8.096;2023-06-10T07:07:52;21.00;56.20
15983;DHT22;14442;50.196;8.096;2023-06-10T07:10:20;21.00;56.20
15983;DHT22;14442;50.196;8.096;2023-06-10T07:12:48;21.10;56.30
15983;DHT22;14442;50.196;8.096;2023-06-10T07:15:14;21.10;56.30
15983;DHT22;14442;50.196;8.096;2023-06-10T07:17:43;21.00;56.20
15983;DHT22;14442;50.196;8.096;2023-06-10T07:20:10;21.10;56.30
15983;DHT22;14442;50.196;8.096;2023-06-10T07:22:37;21.10;56.40
15983;DHT22;14442;50.196;8.096;2023-06-10T07:25:05;21.10;56.30
15983;DHT22;14442;50.196;8.096;2023-06-10T07:27:32;21.10;56.30
15983;DHT22;14442;50.196;8.096;2023-06-10T07:29:59;21.10;56.30
15983;DHT22;14442;50.196;8.096;2023-06-10T07:32:27;21.10;56.30
15983;DHT22;14442;50.196;8.096;2023-06-10T07:34:55;21.10;56.30
15983;DHT22;14442;50.196;8.096;2023-06-10T07:37:21;21.20;56.40
15983;DHT22;14442;50.196;8.096;2023-06-10T07:39:48;21.10;56.20
15983;DHT22;14442;50.196;8.096;2023-06-10T07:42:15;21.20;56.40
15983;DHT22;14442;50.196;8.096;2023-06-10T07:44:42;21.20;56.40
15983;DHT22;14442;50.196;8.096;2023-06-10T07:47:08;21.20;56.40
15983;DHT22;14442;50.196;8.096;2023-06-10T07:49:35;21.20;56.40
15983;DHT22;14442;50.196;8.096;2023-06-10T07:52:04;21.20;56.40
15983;DHT22;14442;50.196;8.096;2023-06-10T07:54:31;21.20;56.40
15983;DHT22;14442;50.196;8.096;2023-06-10T07:56:57;21.20;56.40
15983;DHT22;14442;50.196;8.096;2023-06-10T07:59:24;21.30;56.50
15983;DHT22;14442;50.196;8.096;2023-06-10T08:01:52;21.20;56.50
15983;DHT22;14442;50.196;8.096;2023-06-10T08:04:19;21.30;56.50
15983;DHT22;14442;50.196;8.096;2023-06-10T08:06:46;21.20;56.40
15983;DHT22;14442;50.196;8.096;2023-06-10T08:09:14;21.20;56.40
15983;DHT22;14442;50.196;8.096;2023-06-10T08:11:41;21.30;56.50
15983;DHT22;14442;50.196;8.096;2023-06-10T08:14:08;21.30;56.50
15983;DHT22;14442;50.196;8.096;2023-06-10T08:16:34;21.30;56.50
15983;DHT22;14442;50.196;8.096;2023-06-10T08:19:01;21.30;56.50
15983;DHT22;14442;50.196;8.096;2023-06-10T08:21:28;21.30;56.70
15983;DHT22;14442;50.196;8.096;2023-06-10T08:23:55;21.30;56.70
15983;DHT22;14442;50.196;8.096;2023-06-10T08:26:23;21.30;57.00
15983;DHT22;14442;50.196;8.096;2023-06-10T08:28:50;21.30;57.00
15983;DHT22;14442;50.196;8.096;2023-06-10T08:31:17;21.40;57.20
15983;DHT22;14442;50.196;8.096;2023-06-10T08:33:44;21.40;57.30
15983;DHT22;14442;50.196;8.096;2023-06-10T08:36:11;21.40;58.00
15983;DHT22;14442;50.196;8.096;2023-06-10T08:38:38;21.40;57.40
15983;DHT22;14442;50.196;8.096;2023-06-10T08:41:06;21.50;57.70
15983;DHT22;14442;50.196;8.096;2023-06-10T08:43:41;21.50;57.60
15983;DHT22;14442;50.196;8.096;2023-06-10T08:46:09;21.60;57.70
15983;DHT22;14442;50.196;8.096;2023-06-10T08:48:42;21.60;57.60
15983;DHT22;14442;50.196;8.096;2023-06-10T08:51:10;21.60;57.80
15983;DHT22;14442;50.196;8.096;2023-06-10T08:53:40;21.60;57.70
15983;DHT22;14442;50.196;8.096;2023-06-10T08:56:08;21.60;57.60
15983;DHT22;14442;50.196;8.096;2023-06-10T08:58:37;21.70;57.70
15983;DHT22;14442;50.196;8.096;2023-06-10T09:01:07;21.70;57.80
15983;DHT22;14442;50.196;8.096;2023-06-10T09:03:35;21.70;57.80
15983;DHT22;14442;50.196;8.096;2023-06-10T09:06:05;21.70;57.80
15983;DHT22;14442;50.196;8.096;2023-06-10T09:08:33;21.70;57.90
15983;DHT22;14442;50.196;8.096;2023-06-10T09:11:01;21.70;58.00
15983;DHT22;14442;50.196;8.096;2023-06-10T09:13:28;21.70;57.90
15983;DHT22;14442;50.196;8.096;2023-06-10T09:15:56;21.70;58.00
15983;DHT22;14442;50.196;8.096;2023-06-10T09:18:26;21.70;58.00
15983;DHT22;14442;50.196;8.096;2023-06-10T09:20:53;21.70;58.00
15983;DHT22;14442;50.196;8.096;2023-06-10T09:23:21;21.70;58.00
15983;DHT22;14442;50.196;8.096;2023-06-10T09:25:56;21.70;58.10
15983;DHT22;14442;50.196;8.096;2023-06-10T09:28:23;21.80;58.20
15983;DHT22;14442;50.196;8.096;2023-06-10T09:30:50;21.80;58.40
15983;DHT22;14442;50.196;8.096;2023-06-10T09:33:28;21.80;58.60
15983;DHT22;14442;50.196;8.096;2023-06-10T09:35:55;21.90;58.40
15983;DHT22;14442;50.196;8.096;2023-06-10T09:38:30;21.90;58.40
15983;DHT22;14442;50.196;8.096;2023-06-10T09:40:57;22.00;58.60
15983;DHT22;14442;50.196;8.096;2023-06-10T09:43:38;22.00;58.70
15983;DHT22;14442;50.196;8.096;2023-06-10T09:46:05;22.00;58.80
15983;DHT22;14442;50.196;8.096;2023-06-10T09:48:41;22.10;58.90
15983;DHT22;14442;50.196;8.096;2023-06-10T09:51:09;22.10;59.40
15983;DHT22;14442;50.196;8.096;2023-06-10T09:53:36;22.10;58.60
15983;DHT22;14442;50.196;8.096;2023-06-10T09:56:04;22.10;58.50
15983;DHT22;14442;50.196;8.096;2023-06-10T09:58:38;22.20;58.50
15983;DHT22;14442;50.196;8.096;2023-06-10T10:01:09;22.30;58.50
15983;DHT22;14442;50.196;8.096;2023-06-10T10:03:48;22.30;58.70
15983;DHT22;14442;50.196;8.096;2023-06-10T10:06:17;22.40;58.50
15983;DHT22;14442;50.196;8.096;2023-06-10T10:08:43;22.40;58.60
15983;DHT22;14442;50.196;8.096;2023-06-10T10:11:11;22.40;58.40
15983;DHT22;14442;50.196;8.096;2023-06-10T10:13:39;22.40;58.40
15983;DHT22;14442;50.196;8.096;2023-06-10T10:16:09;22.40;58.30
15983;DHT22;14442;50.196;8.096;2023-06-10T10:18:39;22.50;58.30
15983;DHT22;14442;50.196;8.096;2023-06-10T10:21:12;22.50;58.40
15983;DHT22;14442;50.196;8.096;2023-06-10T10:23:43;22.50;58.30
15983;DHT22;14442;50.196;8.096;2023-06-10T10:26:11;22.50;58.30
15983;DHT22;14442;50.196;8.096;2023-06-10T10:28:45;22.50;58.30
15983;DHT22;14442;50.196;8.096;2023-06-10T10:31:18;22.50;58.40
15983;DHT22;14442;50.196;8.096;2023-06-10T10:33:51;22.50;58.30
15983;DHT22;14442;50.196;8.096;2023-06-10T10:36:21;22.60;58.40
15983;DHT22;14442;50.196;8.096;2023-06-10T10:38:48;22.60;58.50
15983;DHT22;14442;50.196;8.096;2023-06-10T10:41:16;22.60;58.50
15983;DHT22;14442;50.196;8.096;2023-06-10T10:43:45;22.60;58.50
15983;DHT22;14442;50.196;8.096;2023-06-10T10:46:13;22.60;58.50
15983;DHT22;14442;50.196;8.096;2023-06-10T10:48:41;22.60;58.50
15983;DHT22;14442;50.196;8.096;2023-06-10T10:51:08;22.60;58.30
15983;DHT22;14442;50.196;8.096;2023-06-10T10:53:38;22.60;58.20
15983;DHT22;14442;50.196;8.096;2023-06-10T10:56:07;22.60;58.00
15983;DHT22;14442;50.196;8.096;2023-06-10T10:58:34;22.70;58.00
15983;DHT22;14442;50.196;8.096;2023-06-10T11:01:10;22.60;58.10
15983;DHT22;14442;50.196;8.096;2023-06-10T11:03:42;22.60;58.00
15983;DHT22;14442;50.196;8.096;2023-06-10T11:06:13;22.60;58.00
15983;DHT22;14442;50.196;8.096;2023-06-10T11:08:49;22.60;58.00
15983;DHT22;14442;50.196;8.096;2023-06-10T11:11:21;22.60;57.90
15983;DHT22;14442;50.196;8.096;2023-06-10T11:14:07;22.70;57.90
15983;DHT22;14442;50.196;8.096;2023-06-10T11:16:39;22.70;57.90
15983;DHT22;14442;50.196;8.096;2023-06-10T11:19:06;22.70;57.80
15983;DHT22;14442;50.196;8.096;2023-06-10T11:21:45;22.70;57.80
15983;DHT22;14442;50.196;8.096;2023-06-10T11:24:25;22.70;57.70
15983;DHT22;14442;50.196;8.096;2023-06-10T11:26:52;22.70;57.60
15983;DHT22;14442;50.196;8.096;2023-06-10T11:29:19;22.70;57.60
15983;DHT22;14442;50.196;8.096;2023-06-10T11:31:50;22.70;57.50
15983;DHT22;14442;50.196;8.096;2023-06-10T11:34:24;22.80;57.40
15983;DHT22;14442;50.196;8.096;2023-06-10T11:36:52;22.80;57.60
15983;DHT22;14442;50.196;8.096;2023-06-10T11:39:20;22.80;57.60
15983;DHT22;14442;50.196;8.096;2023-06-10T11:41:50;22.90;57.60
15983;DHT22;14442;50.196;8.096;2023-06-10T11:44:18;22.90;57.60
15983;DHT22;14442;50.196;8.096;2023-06-10T11:46:45;22.90;57.60
15983;DHT22;14442;50.196;8.096;2023-06-10T11:49:12;22.90;57.50
15983;DHT22;14442;50.196;8.096;2023-06-10T11:51:40;22.90;57.60
15983;DHT22;14442;50.196;8.096;2023-06-10T11:54:10;23.10;57.80
15983;DHT22;14442;50.196;8.096;2023-06-10T11:56:37;23.10;57.60
15983;DHT22;14442;50.196;8.096;2023-06-10T11:59:06;23.10;57.60
15983;DHT22;14442;50.196;8.096;2023-06-10T12:01:34;23.10;57.50
15983;DHT22;14442;50.196;8.096;2023-06-10T12:04:03;23.10;57.40
15983;DHT22;14442;50.196;8.096;2023-06-10T12:06:41;23.10;57.40
15983;DHT22;14442;50.196;8.096;2023-06-10T12:09:17;23.10;57.30
15983;DHT22;14442;50.196;8.096;2023-06-10T12:11:44;23.10;57.50
15983;DHT22;14442;50.196;8.096;2023-06-10T12:14:13;23.10;57.50
15983;DHT22;14442;50.196;8.096;2023-06-10T12:16:40;23.10;57.40
15983;DHT22;14442;50.196;8.096;2023-06-10T12:19:07;23.10;57.50
15983;DHT22;14442;50.196;8.096;2023-06-10T12:21:36;23.10;57.60
15983;DHT22;14442;50.196;8.096;2023-06-10T12:24:07;23.20;57.70
15983;DHT22;14442;50.196;8.096;2023-06-10T12:26:35;23.20;57.60
15983;DHT22;14442;50.196;8.096;2023-06-10T12:29:02;23.30;57.90
15983;DHT22;14442;50.196;8.096;2023-06-10T12:32:01;23.30;57.90
15983;DHT22;14442;50.196;8.096;2023-06-10T12:34:38;23.30;57.80
15983;DHT22;14442;50.196;8.096;2023-06-10T12:37:11;23.30;57.90
15983;DHT22;14442;50.196;8.096;2023-06-10T12:39:40;23.40;57.90
15983;DHT22;14442;50.196;8.096;2023-06-10T12:42:08;23.40;57.70
15983;DHT22;14442;50.196;8.096;2023-06-10T12:44:38;23.40;57.80
15983;DHT22;14442;50.196;8.096;2023-06-10T12:47:09;23.30;57.70
15983;DHT22;14442;50.196;8.096;2023-06-10T12:49:37;23.40;57.90
15983;DHT22;14442;50.196;8.096;2023-06-10T12:52:04;23.40;57.80
15983;DHT22;14442;50.196;8.096;2023-06-10T12:54:32;23.40;57.70
15983;DHT22;14442;50.196;8.096;2023-06-10T12:57:00;23.50;57.80
15983;DHT22;14442;50.196;8.096;2023-06-10T12:59:27;23.40;57.80
15983;DHT22;14442;50.196;8.096;2023-06-10T13:01:54;23.50;57.70
15983;DHT22;14442;50.196;8.096;2023-06-10T13:04:23;23.50;57.60
15983;DHT22;14442;50.196;8.096;2023-06-10T13:06:49;23.60;57.70
15983;DHT22;14442;50.196;8.096;2023-06-10T13:09:16;23.60;57.60
15983;DHT22;14442;50.196;8.096;2023-06-10T13:11:43;23.60;57.50
15983;DHT22;14442;50.196;8.096;2023-06-10T13:14:11;23.60;57.60
15983;DHT22;14442;50.196;8.096;2023-06-10T13:16:38;23.70;57.60
15983;DHT22;14442;50.196;8.096;2023-06-10T13:19:05;23.70;57.30
15983;DHT22;14442;50.196;8.096;2023-06-10T13:21:33;23.80;57.40
15983;DHT22;14442;50.196;8.096;2023-06-10T13:24:01;23.70;57.10
15983;DHT22;14442;50.196;8.096;2023-06-10T13:26:28;23.70;57.00
15983;DHT22;14442;50.196;8.096;2023-06-10T13:28:55;23.70;57.00
15983;DHT22;14442;50.196;8.096;2023-06-10T13:31:22;23.70;57.00
15983;DHT22;14442;50.196;8.096;2023-06-10T13:33:49;23.70;57.50
15983;DHT22;14442;50.196;8.096;2023-06-10T13:36:16;23.80;57.30
15983;DHT22;14442;50.196;8.096;2023-06-10T13:38:44;23.80;57.30
15983;DHT22;14442;50.196;8.096;2023-06-10T13:41:11;23.80;57.10
15983;DHT22;14442;50.196;8.096;2023-06-10T13:43:38;23.80;56.90
15983;DHT22;14442;50.196;8.096;2023-06-10T13:46:04;23.90;56.90
15983;DHT22;14442;50.196;8.096;2023-06-10T13:48:31;23.90;56.80
15983;DHT22;14442;50.196;8.096;2023-06-10T13:50:58;23.90;56.80
15983;DHT22;14442;50.196;8.096;2023-06-10T13:53:25;23.90;57.00
15983;DHT22;14442;50.196;8.096;2023-06-10T13:55:54;23.90;57.10
15983;DHT22;14442;50.196;8.096;2023-06-10T13:58:20;24.00;57.20
15983;DHT22;14442;50.196;8.096;2023-06-10T14:00:47;24.10;57.20
15983;DHT22;14442;50.196;8.096;2023-06-10T14:03:17;24.10;57.40
15983;DHT22;14442;50.196;8.096;2023-06-10T14:05:44;24.10;57.40
15983;DHT22;14442;50.196;8.096;2023-06-10T14:08:11;24.20;57.40
15983;DHT22;14442;50.196;8.096;2023-06-10T14:10:38;24.20;57.30
15983;DHT22;14442;50.196;8.096;2023-06-10T14:13:07;24.20;57.30
15983;DHT22;14442;50.196;8.096;2023-06-10T14:15:33;24.20;57.30
15983;DHT22;14442;50.196;8.096;2023-06-10T14:18:01;24.20;57.10
15983;DHT22;14442;50.196;8.096;2023-06-10T14:20:28;24.20;57.20
15983;DHT22;14442;50.196;8.096;2023-06-10T14:22:57;24.30;57.20
15983;DHT22;14442;50.196;8.096;2023-06-10T14:25:24;24.30;57.10
15983;DHT22;14442;50.196;8.096;2023-06-10T14:27:51;24.30;57.10
15983;DHT22;14442;50.196;8.096;2023-06-10T14:30:19;24.30;57.10
15983;DHT22;14442;50.196;8.096;2023-06-10T14:32:46;24.40;57.20
15983;DHT22;14442;50.196;8.096;2023-06-10T14:35:13;24.30;57.00
15983;DHT22;14442;50.196;8.096;2023-06-10T14:37:40;24.30;57.10
15983;DHT22;14442;50.196;8.096;2023-06-10T14:40:08;24.30;57.20
15983;DHT22;14442;50.196;8.096;2023-06-10T14:42:35;24.30;57.00
15983;DHT22;14442;50.196;8.096;2023-06-10T14:45:02;24.30;57.00
15983;DHT22;14442;50.196;8.096;2023-06-10T14:47:31;24.30;57.00
15983;DHT22;14442;50.196;8.096;2023-06-10T14:49:58;24.30;57.10
15983;DHT22;14442;50.196;8.096;2023-06-10T14:52:24;24.30;57.00
15983;DHT22;14442;50.196;8.096;2023-06-10T14:54:51;24.30;57.00
15983;DHT22;14442;50.196;8.096;2023-06-10T14:57:18;24.30;57.10
15983;DHT22;14442;50.196;8.096;2023-06-10T14:59:45;24.30;57.00
15983;DHT22;14442;50.196;8.096;2023-06-10T15:02:12;24.30;56.90
15983;DHT22;14442;50.196;8.096;2023-06-10T15:04:40;24.20;56.70
15983;DHT22;14442;50.196;8.096;2023-06-10T15:07:07;24.20;56.70
15983;DHT22;14442;50.196;8.096;2023-06-10T15:09:34;24.10;56.50
15983;DHT22;14442;50.196;8.096;2023-06-10T15:12:00;24.10;56.60
15983;DHT22;14442;50.196;8.096;2023-06-10T15:14:28;24.10;56.70
15983;DHT22;14442;50.196;8.096;2023-06-10T15:16:55;24.10;56.70
15983;DHT22;14442;50.196;8.096;2023-06-10T15:19:23;24.00;56.60
15983;DHT22;14442;50.196;8.096;2023-06-10T15:21:52;24.00;56.70
15983;DHT22;14442;50.196;8.096;2023-06-10T15:24:18;24.00;56.70
15983;DHT22;14442;50.196;8.096;2023-06-10T15:26:45;24.00;56.70
15983;DHT22;14442;50.196;8.096;2023-06-10T15:29:12;23.90;56.70
15983;DHT22;14442;50.196;8.096;2023-06-10T15:31:39;23.90;56.70
15983;DHT22;14442;50.196;8.096;2023-06-10T15:34:06;23.90;56.70
15983;DHT22;14442;50.196;8.096;2023-06-10T15:36:34;23.90;56.70